sensor_id;sensor_type;location;lat;lon;timestamp;temperature;humidity
19172;DHT22;9718;52.200;21.052;2022-12-07T00:01:32;1.60;99.90
19172;DHT22;9718;52.200;21.052;2022-12-07T00:04:01;1.50;99.90
19172;DHT22;9718;52.200;21.052;2022-12-07T00:08:59;1.50;99.90
19172;DHT22;9718;52.200;21.052;2022-12-07T00:11:26;1.50;99.90
19172;DHT22;9718;52.200;21.052;2022-12-07T00:13:56;1.60;99.90
19172;DHT22;9718;52.200;21.052;2022-12-07T00:16:25;1.60;99.90
19172;DHT22;9718;52.200;21.052;2022-12-07T00:18:53;1.60;99.90
19172;DHT22;9718;52.200;21.052;2022-12-07T00:21:25;1.80;99.90
19172;DHT22;9718;52.200;21.052;2022-12-07T00:23:54;1.80;99.90
19172;DHT22;9718;52.200;21.052;2022-12-07T00:26:29;1.90;99.90
19172;DHT22;9718;52.200;21.052;2022-12-07T00:29:00;1.90;99.90
19172;DHT22;9718;52.200;21.052;2022-12-07T00:31:29;1.90;99.90
19172;DHT22;9718;52.200;21.052;2022-12-07T00:33:57;1.90;99.90
19172;DHT22;9718;52.200;21.052;2022-12-07T00:36:25;1.80;99.90
19172;DHT22;9718;52.200;21.052;2022-12-07T00:38:54;1.80;99.90
19172;DHT22;9718;52.200;21.052;2022-12-07T00:41:23;1.80;99.90
19172;DHT22;9718;52.200;21.052;2022-12-07T00:43:52;1.90;99.90
19172;DHT22;9718;52.200;21.052;2022-12-07T00:46:20;2.00;99.90
19172;DHT22;9718;52.200;21.052;2022-12-07T00:48:49;2.10;99.90
19172;DHT22;9718;52.200;21.052;2022-12-07T00:51:18;2.20;99.90
19172;DHT22;9718;52.200;21.052;2022-12-07T00:53:45;2.20;99.90
19172;DHT22;9718;52.200;21.052;2022-12-07T00:56:23;2.10;99.90
19172;DHT22;9718;52.200;21.052;2022-12-07T00:58:54;2.10;99.90
19172;DHT22;9718;52.200;21.052;2022-12-07T01:01:23;2.10;99.90
19172;DHT22;9718;52.200;21.052;2022-12-07T01:03:51;2.10;99.90
19172;DHT22;9718;52.200;21.052;2022-12-07T01:06:19;2.20;99.90
19172;DHT22;9718;52.200;21.052;2022-12-07T01:08:47;2.30;99.90
19172;DHT22;9718;52.200;21.052;2022-12-07T01:11:20;2.30;99.90
19172;DHT22;9718;52.200;21.052;2022-12-07T01:13:50;2.30;99.90
19172;DHT22;9718;52.200;21.052;2022-12-07T01:16:18;2.30;99.90
19172;DHT22;9718;52.200;21.052;2022-12-07T01:18:47;2.40;99.90
19172;DHT22;9718;52.200;21.052;2022-12-07T01:21:19;2.40;99.90
19172;DHT22;9718;52.200;21.052;2022-12-07T01:23:48;2.40;99.90
19172;DHT22;9718;52.200;21.052;2022-12-07T01:26:18;2.40;99.90
19172;DHT22;9718;52.200;21.052;2022-12-07T01:28:46;2.40;99.90
19172;DHT22;9718;52.200;21.052;2022-12-07T01:31:16;2.40;99.90
19172;DHT22;9718;52.200;21.052;2022-12-07T01:33:52;2.40;99.90
19172;DHT22;9718;52.200;21.052;2022-12-07T01:36:28;2.50;99.90
19172;DHT22;9718;52.200;21.052;2022-12-07T01:38:58;2.50;99.90
19172;DHT22;9718;52.200;21.052;2022-12-07T01:41:27;2.50;99.90
19172;DHT22;9718;52.200;21.052;2022-12-07T01:44:27;2.60;99.90
19172;DHT22;9718;52.200;21.052;2022-12-07T01:47:02;2.60;99.90
19172;DHT22;9718;52.200;21.052;2022-12-07T01:49:42;2.60;99.90
19172;DHT22;9718;52.200;21.052;2022-12-07T01:52:36;2.60;99.90
19172;DHT22;9718;52.200;21.052;2022-12-07T01:55:07;2.50;99.90
19172;DHT22;9718;52.200;21.052;2022-12-07T01:57:38;2.60;99.90
19172;DHT22;9718;52.200;21.052;2022-12-07T02:00:08;2.70;99.90
19172;DHT22;9718;52.200;21.052;2022-12-07T02:02:38;2.70;99.90
19172;DHT22;9718;52.200;21.052;2022-12-07T02:05:09;2.70;99.90
19172;DHT22;9718;52.200;21.052;2022-12-07T02:07:37;2.60;99.90
19172;DHT22;9718;52.200;21.052;2022-12-07T02:10:20;2.70;99.90
19172;DHT22;9718;52.200;21.052;2022-12-07T02:13:13;2.60;99.90
19172;DHT22;9718;52.200;21.052;2022-12-07T02:15:59;2.70;99.90
19172;DHT22;9718;52.200;21.052;2022-12-07T02:18:56;2.60;99.90
19172;DHT22;9718;52.200;21.052;2022-12-07T02:29:38;2.60;99.90
19172;DHT22;9718;52.200;21.052;2022-12-07T02:32:15;2.60;99.90
19172;DHT22;9718;52.200;21.052;2022-12-07T02:34:50;2.60;99.90
19172;DHT22;9718;52.200;21.052;2022-12-07T02:42:40;2.70;99.90
19172;DHT22;9718;52.200;21.052;2022-12-07T02:45:10;2.60;99.90
19172;DHT22;9718;52.200;21.052;2022-12-07T02:47:41;2.70;99.90
19172;DHT22;9718;52.200;21.052;2022-12-07T02:50:10;2.60;99.90
19172;DHT22;9718;52.200;21.052;2022-12-07T02:52:37;2.60;99.90
19172;DHT22;9718;52.200;21.052;2022-12-07T02:55:05;2.60;99.90
19172;DHT22;9718;52.200;21.052;2022-12-07T03:00:11;2.50;99.90
19172;DHT22;9718;52.200;21.052;2022-12-07T03:03:00;2.60;99.90
19172;DHT22;9718;52.200;21.052;2022-12-07T03:08:39;2.50;99.90
19172;DHT22;9718;52.200;21.052;2022-12-07T03:11:14;2.50;99.90
19172;DHT22;9718;52.200;21.052;2022-12-07T03:13:59;2.50;99.90
19172;DHT22;9718;52.200;21.052;2022-12-07T03:16:39;2.40;99.90
19172;DHT22;9718;52.200;21.052;2022-12-07T03:19:11;2.40;99.90
19172;DHT22;9718;52.200;21.052;2022-12-07T03:21:42;2.40;99.90
19172;DHT22;9718;52.200;21.052;2022-12-07T03:24:14;2.40;99.90
19172;DHT22;9718;52.200;21.052;2022-12-07T03:26:48;2.40;99.90
19172;DHT22;9718;52.200;21.052;2022-12-07T03:29:56;2.40;99.90
19172;DHT22;9718;52.200;21.052;2022-12-07T03:37:40;2.40;99.90
19172;DHT22;9718;52.200;21.052;2022-12-07T03:42:50;2.30;99.90
19172;DHT22;9718;52.200;21.052;2022-12-07T03:45:20;2.20;99.90
19172;DHT22;9718;52.200;21.052;2022-12-07T03:48:22;2.10;99.90
19172;DHT22;9718;52.200;21.052;2022-12-07T03:51:00;2.00;99.90
19172;DHT22;9718;52.200;21.052;2022-12-07T03:53:43;2.00;99.90
19172;DHT22;9718;52.200;21.052;2022-12-07T03:56:13;2.00;99.90
19172;DHT22;9718;52.200;21.052;2022-12-07T03:58:41;2.00;99.90
19172;DHT22;9718;52.200;21.052;2022-12-07T04:01:08;2.00;99.90
19172;DHT22;9718;52.200;21.052;2022-12-07T04:03:35;2.00;99.90
19172;DHT22;9718;52.200;21.052;2022-12-07T04:06:03;2.00;99.90
19172;DHT22;9718;52.200;21.052;2022-12-07T04:08:30;2.00;99.90
19172;DHT22;9718;52.200;21.052;2022-12-07T04:10:57;2.10;99.90
19172;DHT22;9718;52.200;21.052;2022-12-07T04:13:24;2.00;99.90
19172;DHT22;9718;52.200;21.052;2022-12-07T04:15:51;2.00;99.90
19172;DHT22;9718;52.200;21.052;2022-12-07T04:18:18;2.00;99.90
19172;DHT22;9718;52.200;21.052;2022-12-07T04:20:46;1.90;99.90
19172;DHT22;9718;52.200;21.052;2022-12-07T04:23:13;2.00;99.90
19172;DHT22;9718;52.200;21.052;2022-12-07T04:25:40;2.00;99.90
19172;DHT22;9718;52.200;21.052;2022-12-07T04:28:07;1.90;99.90
19172;DHT22;9718;52.200;21.052;2022-12-07T04:30:34;2.00;99.90
19172;DHT22;9718;52.200;21.052;2022-12-07T04:33:01;2.00;99.90
19172;DHT22;9718;52.200;21.052;2022-12-07T04:35:29;1.90;99.90
19172;DHT22;9718;52.200;21.052;2022-12-07T04:37:56;2.00;99.90
19172;DHT22;9718;52.200;21.052;2022-12-07T04:40:23;2.00;99.90
19172;DHT22;9718;52.200;21.052;2022-12-07T04:42:50;1.90;99.90
19172;DHT22;9718;52.200;21.052;2022-12-07T04:45:17;1.80;99.90
19172;DHT22;9718;52.200;21.052;2022-12-07T04:47:44;1.90;99.90
19172;DHT22;9718;52.200;21.052;2022-12-07T04:50:11;1.90;99.90
19172;DHT22;9718;52.200;21.052;2022-12-07T04:52:38;1.80;99.90
19172;DHT22;9718;52.200;21.052;2022-12-07T04:55:06;1.90;99.90
19172;DHT22;9718;52.200;21.052;2022-12-07T04:57:33;1.90;99.90
19172;DHT22;9718;52.200;21.052;2022-12-07T05:00:00;1.90;99.90
19172;DHT22;9718;52.200;21.052;2022-12-07T05:02:28;1.80;99.90
19172;DHT22;9718;52.200;21.052;2022-12-07T05:04:55;1.80;99.90
19172;DHT22;9718;52.200;21.052;2022-12-07T05:07:22;1.90;99.90
19172;DHT22;9718;52.200;21.052;2022-12-07T05:09:49;1.90;99.90
19172;DHT22;9718;52.200;21.052;2022-12-07T05:12:16;1.90;99.90
19172;DHT22;9718;52.200;21.052;2022-12-07T05:14:43;1.70;99.90
19172;DHT22;9718;52.200;21.052;2022-12-07T05:17:10;1.70;99.90
19172;DHT22;9718;52.200;21.052;2022-12-07T05:19:38;1.70;99.90
19172;DHT22;9718;52.200;21.052;2022-12-07T05:22:05;1.60;99.90
19172;DHT22;9718;52.200;21.052;2022-12-07T05:24:32;1.60;99.90
19172;DHT22;9718;52.200;21.052;2022-12-07T05:26:59;1.60;99.90
19172;DHT22;9718;52.200;21.052;2022-12-07T05:29:26;1.60;99.90
19172;DHT22;9718;52.200;21.052;2022-12-07T05:31:53;1.50;99.90
19172;DHT22;9718;52.200;21.052;2022-12-07T05:34:21;1.50;99.90
19172;DHT22;9718;52.200;21.052;2022-12-07T05:36:48;1.60;99.90
19172;DHT22;9718;52.200;21.052;2022-12-07T05:39:16;1.50;99.90
19172;DHT22;9718;52.200;21.052;2022-12-07T05:41:43;1.50;99.90
19172;DHT22;9718;52.200;21.052;2022-12-07T05:44:29;1.50;99.90
19172;DHT22;9718;52.200;21.052;2022-12-07T05:46:56;1.50;99.90
19172;DHT22;9718;52.200;21.052;2022-12-07T05:49:23;1.40;99.90
19172;DHT22;9718;52.200;21.052;2022-12-07T05:51:50;1.40;99.90
19172;DHT22;9718;52.200;21.052;2022-12-07T05:54:18;1.40;99.90
19172;DHT22;9718;52.200;21.052;2022-12-07T05:56:45;1.40;99.90
19172;DHT22;9718;52.200;21.052;2022-12-07T05:59:12;1.30;99.90
19172;DHT22;9718;52.200;21.052;2022-12-07T06:01:56;1.30;99.90
19172;DHT22;9718;52.200;21.052;2022-12-07T06:04:26;1.30;99.90
19172;DHT22;9718;52.200;21.052;2022-12-07T06:06:53;1.40;99.90
19172;DHT22;9718;52.200;21.052;2022-12-07T06:09:22;1.40;99.90
19172;DHT22;9718;52.200;21.052;2022-12-07T06:11:49;1.40;99.90
19172;DHT22;9718;52.200;21.052;2022-12-07T06:14:36;1.40;99.90
19172;DHT22;9718;52.200;21.052;2022-12-07T06:17:03;1.50;99.90
19172;DHT22;9718;52.200;21.052;2022-12-07T06:19:31;1.40;99.90
19172;DHT22;9718;52.200;21.052;2022-12-07T06:21:58;1.40;99.90
19172;DHT22;9718;52.200;21.052;2022-12-07T06:24:26;1.50;99.90
19172;DHT22;9718;52.200;21.052;2022-12-07T06:26:53;1.40;99.90
19172;DHT22;9718;52.200;21.052;2022-12-07T06:29:20;1.40;99.90
19172;DHT22;9718;52.200;21.052;2022-12-07T06:31:48;1.30;99.90
19172;DHT22;9718;52.200;21.052;2022-12-07T06:34:19;1.30;99.90
19172;DHT22;9718;52.200;21.052;2022-12-07T06:36:46;1.30;99.90
19172;DHT22;9718;52.200;21.052;2022-12-07T06:39:19;1.30;99.90
19172;DHT22;9718;52.200;21.052;2022-12-07T06:41:46;1.30;99.90
19172;DHT22;9718;52.200;21.052;2022-12-07T06:44:14;1.30;99.90
19172;DHT22;9718;52.200;21.052;2022-12-07T06:46:41;1.30;99.90
19172;DHT22;9718;52.200;21.052;2022-12-07T06:49:08;1.30;99.90
19172;DHT22;9718;52.200;21.052;2022-12-07T06:51:35;1.30;99.90
19172;DHT22;9718;52.200;21.052;2022-12-07T06:54:04;1.40;99.90
19172;DHT22;9718;52.200;21.052;2022-12-07T06:56:31;1.40;99.90
19172;DHT22;9718;52.200;21.052;2022-12-07T06:58:58;1.40;99.90
19172;DHT22;9718;52.200;21.052;2022-12-07T07:01:25;1.40;99.90
19172;DHT22;9718;52.200;21.052;2022-12-07T07:03:52;1.30;99.90
19172;DHT22;9718;52.200;21.052;2022-12-07T07:06:19;1.30;99.90
19172;DHT22;9718;52.200;21.052;2022-12-07T07:08:47;1.30;99.90
19172;DHT22;9718;52.200;21.052;2022-12-07T07:11:14;1.40;99.90
19172;DHT22;9718;52.200;21.052;2022-12-07T07:13:41;1.40;99.90
19172;DHT22;9718;52.200;21.052;2022-12-07T07:16:08;1.40;99.90
19172;DHT22;9718;52.200;21.052;2022-12-07T07:18:36;1.30;99.90
19172;DHT22;9718;52.200;21.052;2022-12-07T07:21:03;1.30;99.90
19172;DHT22;9718;52.200;21.052;2022-12-07T07:23:30;1.40;99.90
19172;DHT22;9718;52.200;21.052;2022-12-07T07:25:57;1.30;99.90
19172;DHT22;9718;52.200;21.052;2022-12-07T07:28:25;1.50;99.90
19172;DHT22;9718;52.200;21.052;2022-12-07T07:30:52;1.50;99.90
19172;DHT22;9718;52.200;21.052;2022-12-07T07:33:19;1.50;99.90
19172;DHT22;9718;52.200;21.052;2022-12-07T07:35:46;1.40;99.90
19172;DHT22;9718;52.200;21.052;2022-12-07T07:38:13;1.40;99.90
19172;DHT22;9718;52.200;21.052;2022-12-07T07:40:40;1.50;99.90
19172;DHT22;9718;52.200;21.052;2022-12-07T07:43:07;1.50;99.90
19172;DHT22;9718;52.200;21.052;2022-12-07T07:45:34;1.60;99.90
19172;DHT22;9718;52.200;21.052;2022-12-07T07:48:02;1.60;99.90
19172;DHT22;9718;52.200;21.052;2022-12-07T07:50:29;1.50;99.90
19172;DHT22;9718;52.200;21.052;2022-12-07T07:52:57;1.50;99.90
19172;DHT22;9718;52.200;21.052;2022-12-07T07:55:24;1.50;99.90
19172;DHT22;9718;52.200;21.052;2022-12-07T07:57:51;1.50;99.90
19172;DHT22;9718;52.200;21.052;2022-12-07T08:00:21;1.60;99.90
19172;DHT22;9718;52.200;21.052;2022-12-07T08:02:49;1.60;99.90
19172;DHT22;9718;52.200;21.052;2022-12-07T08:05:16;1.70;99.90
19172;DHT22;9718;52.200;21.052;2022-12-07T08:07:43;1.70;99.90
19172;DHT22;9718;52.200;21.052;2022-12-07T08:10:13;1.70;99.90
19172;DHT22;9718;52.200;21.052;2022-12-07T08:12:42;1.80;99.90
19172;DHT22;9718;52.200;21.052;2022-12-07T08:15:29;1.80;99.90
19172;DHT22;9718;52.200;21.052;2022-12-07T08:17:57;1.80;99.90
19172;DHT22;9718;52.200;21.052;2022-12-07T08:20:24;1.90;99.90
19172;DHT22;9718;52.200;21.052;2022-12-07T08:22:52;1.90;99.90
19172;DHT22;9718;52.200;21.052;2022-12-07T08:25:19;1.90;99.90
19172;DHT22;9718;52.200;21.052;2022-12-07T08:27:47;1.90;99.90
19172;DHT22;9718;52.200;21.052;2022-12-07T08:30:14;1.90;99.90
19172;DHT22;9718;52.200;21.052;2022-12-07T08:32:41;1.80;99.90
19172;DHT22;9718;52.200;21.052;2022-12-07T08:35:09;1.90;99.90
19172;DHT22;9718;52.200;21.052;2022-12-07T08:37:36;1.90;99.90
19172;DHT22;9718;52.200;21.052;2022-12-07T08:40:05;2.00;99.90
19172;DHT22;9718;52.200;21.052;2022-12-07T08:42:33;2.10;99.90
19172;DHT22;9718;52.200;21.052;2022-12-07T08:45:09;2.10;99.90
19172;DHT22;9718;52.200;21.052;2022-12-07T08:47:40;2.00;99.90
19172;DHT22;9718;52.200;21.052;2022-12-07T08:50:09;2.00;99.90
19172;DHT22;9718;52.200;21.052;2022-12-07T08:52:39;2.00;99.90
19172;DHT22;9718;52.200;21.052;2022-12-07T08:55:10;2.10;99.90
19172;DHT22;9718;52.200;21.052;2022-12-07T08:57:39;2.10;99.90
19172;DHT22;9718;52.200;21.052;2022-12-07T09:00:06;2.10;99.90
19172;DHT22;9718;52.200;21.052;2022-12-07T09:02:34;2.20;99.90
19172;DHT22;9718;52.200;21.052;2022-12-07T09:05:02;2.20;99.90
19172;DHT22;9718;52.200;21.052;2022-12-07T09:07:30;2.30;99.90
19172;DHT22;9718;52.200;21.052;2022-12-07T09:09:59;2.40;99.90
19172;DHT22;9718;52.200;21.052;2022-12-07T09:12:27;2.50;99.90
19172;DHT22;9718;52.200;21.052;2022-12-07T09:14:54;2.50;99.90
19172;DHT22;9718;52.200;21.052;2022-12-07T09:17:21;2.40;99.90
19172;DHT22;9718;52.200;21.052;2022-12-07T09:19:48;2.50;99.90
19172;DHT22;9718;52.200;21.052;2022-12-07T09:22:15;2.50;99.90
19172;DHT22;9718;52.200;21.052;2022-12-07T09:24:42;2.50;99.90
19172;DHT22;9718;52.200;21.052;2022-12-07T09:27:11;2.50;99.90
19172;DHT22;9718;52.200;21.052;2022-12-07T09:29:38;2.60;99.90
19172;DHT22;9718;52.200;21.052;2022-12-07T09:32:06;2.70;99.90
19172;DHT22;9718;52.200;21.052;2022-12-07T09:34:37;2.70;99.90
19172;DHT22;9718;52.200;21.052;2022-12-07T09:37:04;2.80;99.90
19172;DHT22;9718;52.200;21.052;2022-12-07T09:39:33;2.80;99.90
19172;DHT22;9718;52.200;21.052;2022-12-07T09:42:03;2.80;99.90
19172;DHT22;9718;52.200;21.052;2022-12-07T09:45:12;2.80;99.90
19172;DHT22;9718;52.200;21.052;2022-12-07T09:48:20;2.80;99.90
19172;DHT22;9718;52.200;21.052;2022-12-07T09:51:03;2.70;99.90
19172;DHT22;9718;52.200;21.052;2022-12-07T09:54:12;2.80;99.90
19172;DHT22;9718;52.200;21.052;2022-12-07T09:57:14;2.90;99.90
19172;DHT22;9718;52.200;21.052;2022-12-07T10:00:01;2.80;99.90
19172;DHT22;9718;52.200;21.052;2022-12-07T10:03:25;2.90;99.90
19172;DHT22;9718;52.200;21.052;2022-12-07T10:06:27;3.00;99.90
19172;DHT22;9718;52.200;21.052;2022-12-07T10:09:14;2.90;99.90
19172;DHT22;9718;52.200;21.052;2022-12-07T10:12:16;2.90;99.90
19172;DHT22;9718;52.200;21.052;2022-12-07T10:15:21;2.90;99.90
19172;DHT22;9718;52.200;21.052;2022-12-07T10:24:22;3.20;99.90
19172;DHT22;9718;52.200;21.052;2022-12-07T10:28:00;3.10;99.90
19172;DHT22;9718;52.200;21.052;2022-12-07T10:31:03;3.00;99.90
19172;DHT22;9718;52.200;21.052;2022-12-07T10:34:24;3.10;99.90
19172;DHT22;9718;52.200;21.052;2022-12-07T10:37:40;3.20;99.90
19172;DHT22;9718;52.200;21.052;2022-12-07T10:40:41;3.10;99.90
19172;DHT22;9718;52.200;21.052;2022-12-07T10:46:00;3.10;99.90
19172;DHT22;9718;52.200;21.052;2022-12-07T10:48:42;3.00;99.90
19172;DHT22;9718;52.200;21.052;2022-12-07T10:51:36;3.00;99.90
19172;DHT22;9718;52.200;21.052;2022-12-07T10:54:28;3.00;99.90
19172;DHT22;9718;52.200;21.052;2022-12-07T10:57:22;3.10;99.90
19172;DHT22;9718;52.200;21.052;2022-12-07T11:06:03;3.10;99.90
19172;DHT22;9718;52.200;21.052;2022-12-07T11:12:11;3.20;99.90
19172;DHT22;9718;52.200;21.052;2022-12-07T11:18:11;3.30;99.90
19172;DHT22;9718;52.200;21.052;2022-12-07T11:24:17;3.30;99.90
19172;DHT22;9718;52.200;21.052;2022-12-07T11:27:24;3.20;99.90
19172;DHT22;9718;52.200;21.052;2022-12-07T11:30:37;3.20;99.90
19172;DHT22;9718;52.200;21.052;2022-12-07T11:33:33;3.20;99.90
19172;DHT22;9718;52.200;21.052;2022-12-07T11:36:41;3.40;99.90
19172;DHT22;9718;52.200;21.052;2022-12-07T11:39:47;3.20;99.90
19172;DHT22;9718;52.200;21.052;2022-12-07T11:46:19;3.20;99.90
19172;DHT22;9718;52.200;21.052;2022-12-07T11:49:40;3.20;99.90
19172;DHT22;9718;52.200;21.052;2022-12-07T11:52:51;3.30;99.90
19172;DHT22;9718;52.200;21.052;2022-12-07T11:56:07;3.40;99.90
19172;DHT22;9718;52.200;21.052;2022-12-07T11:59:12;3.40;99.90
19172;DHT22;9718;52.200;21.052;2022-12-07T12:02:51;3.40;99.90
19172;DHT22;9718;52.200;21.052;2022-12-07T12:05:47;3.40;99.90
19172;DHT22;9718;52.200;21.052;2022-12-07T12:12:51;3.50;99.90
19172;DHT22;9718;52.200;21.052;2022-12-07T12:16:12;3.40;99.90
19172;DHT22;9718;52.200;21.052;2022-12-07T12:19:35;3.30;99.90
19172;DHT22;9718;52.200;21.052;2022-12-07T12:22:44;3.10;99.90
19172;DHT22;9718;52.200;21.052;2022-12-07T12:25:37;3.10;99.90
19172;DHT22;9718;52.200;21.052;2022-12-07T12:28:40;3.00;99.90
19172;DHT22;9718;52.200;21.052;2022-12-07T12:37:39;2.90;99.90
19172;DHT22;9718;52.200;21.052;2022-12-07T12:55:13;2.90;99.90
19172;DHT22;9718;52.200;21.052;2022-12-07T13:06:47;2.80;99.90
19172;DHT22;9718;52.200;21.052;2022-12-07T13:09:27;2.80;99.90
19172;DHT22;9718;52.200;21.052;2022-12-07T13:12:02;2.80;99.90
19172;DHT22;9718;52.200;21.052;2022-12-07T13:14:58;2.70;99.90
19172;DHT22;9718;52.200;21.052;2022-12-07T13:20:00;2.90;99.90
19172;DHT22;9718;52.200;21.052;2022-12-07T13:25:18;2.80;99.90
19172;DHT22;9718;52.200;21.052;2022-12-07T13:28:18;2.90;99.90
19172;DHT22;9718;52.200;21.052;2022-12-07T13:31:11;2.90;99.90
19172;DHT22;9718;52.200;21.052;2022-12-07T13:33:35;3.00;99.90
19172;DHT22;9718;52.200;21.052;2022-12-07T13:36:03;2.90;99.90
19172;DHT22;9718;52.200;21.052;2022-12-07T13:38:35;2.90;99.90
19172;DHT22;9718;52.200;21.052;2022-12-07T13:41:15;2.90;99.90
19172;DHT22;9718;52.200;21.052;2022-12-07T13:46:12;2.80;99.90
19172;DHT22;9718;52.200;21.052;2022-12-07T13:48:48;2.80;99.90
19172;DHT22;9718;52.200;21.052;2022-12-07T13:51:22;2.80;99.90
19172;DHT22;9718;52.200;21.052;2022-12-07T13:53:52;2.70;99.90
19172;DHT22;9718;52.200;21.052;2022-12-07T13:56:22;2.60;99.90
19172;DHT22;9718;52.200;21.052;2022-12-07T13:58:52;2.50;99.90
19172;DHT22;9718;52.200;21.052;2022-12-07T14:01:19;2.50;99.90
19172;DHT22;9718;52.200;21.052;2022-12-07T14:03:47;2.50;99.90
19172;DHT22;9718;52.200;21.052;2022-12-07T14:06:24;2.50;99.90
19172;DHT22;9718;52.200;21.052;2022-12-07T14:09:18;2.50;99.90
19172;DHT22;9718;52.200;21.052;2022-12-07T14:11:47;2.40;99.90
19172;DHT22;9718;52.200;21.052;2022-12-07T14:14:30;2.50;99.90
19172;DHT22;9718;52.200;21.052;2022-12-07T14:17:18;2.40;99.90
19172;DHT22;9718;52.200;21.052;2022-12-07T14:20:02;2.40;99.90
19172;DHT22;9718;52.200;21.052;2022-12-07T14:22:38;2.40;99.90
19172;DHT22;9718;52.200;21.052;2022-12-07T14:25:23;2.40;99.90
19172;DHT22;9718;52.200;21.052;2022-12-07T14:27:56;2.40;99.90
19172;DHT22;9718;52.200;21.052;2022-12-07T14:30:32;2.40;99.90
19172;DHT22;9718;52.200;21.052;2022-12-07T14:33:04;2.20;99.90
19172;DHT22;9718;52.200;21.052;2022-12-07T14:35:32;2.30;99.90
19172;DHT22;9718;52.200;21.052;2022-12-07T14:37:59;2.30;99.90
19172;DHT22;9718;52.200;21.052;2022-12-07T14:40:28;2.20;99.90
19172;DHT22;9718;52.200;21.052;2022-12-07T14:43:09;2.20;99.90
19172;DHT22;9718;52.200;21.052;2022-12-07T14:45:37;2.10;99.90
19172;DHT22;9718;52.200;21.052;2022-12-07T14:48:07;2.20;99.90
19172;DHT22;9718;52.200;21.052;2022-12-07T14:50:57;2.00;99.90
19172;DHT22;9718;52.200;21.052;2022-12-07T14:53:49;2.00;99.90
19172;DHT22;9718;52.200;21.052;2022-12-07T14:56:26;1.90;99.90
19172;DHT22;9718;52.200;21.052;2022-12-07T14:58:54;1.90;99.90
19172;DHT22;9718;52.200;21.052;2022-12-07T15:01:21;1.90;99.90
19172;DHT22;9718;52.200;21.052;2022-12-07T15:03:48;1.80;99.90
19172;DHT22;9718;52.200;21.052;2022-12-07T15:06:17;1.80;99.90
19172;DHT22;9718;52.200;21.052;2022-12-07T15:08:45;1.70;99.90
19172;DHT22;9718;52.200;21.052;2022-12-07T15:11:15;1.60;99.90
19172;DHT22;9718;52.200;21.052;2022-12-07T15:13:42;1.60;99.90
19172;DHT22;9718;52.200;21.052;2022-12-07T15:16:30;1.60;99.90
19172;DHT22;9718;52.200;21.052;2022-12-07T15:19:22;1.60;99.90
19172;DHT22;9718;52.200;21.052;2022-12-07T15:21:56;1.60;99.90
19172;DHT22;9718;52.200;21.052;2022-12-07T15:24:23;1.60;99.90
19172;DHT22;9718;52.200;21.052;2022-12-07T15:26:51;1.60;99.90
19172;DHT22;9718;52.200;21.052;2022-12-07T15:29:18;1.60;99.90
19172;DHT22;9718;52.200;21.052;2022-12-07T15:31:50;1.60;99.90
19172;DHT22;9718;52.200;21.052;2022-12-07T15:34:26;1.70;99.90
19172;DHT22;9718;52.200;21.052;2022-12-07T15:37:05;1.70;99.90
19172;DHT22;9718;52.200;21.052;2022-12-07T15:39:33;1.60;99.90
19172;DHT22;9718;52.200;21.052;2022-12-07T15:42:00;1.60;99.90
19172;DHT22;9718;52.200;21.052;2022-12-07T15:44:27;1.70;99.90
19172;DHT22;9718;52.200;21.052;2022-12-07T15:47:13;1.70;99.90
19172;DHT22;9718;52.200;21.052;2022-12-07T15:49:40;1.80;99.90
19172;DHT22;9718;52.200;21.052;2022-12-07T15:52:07;1.70;99.90
19172;DHT22;9718;52.200;21.052;2022-12-07T15:54:34;1.70;99.90
19172;DHT22;9718;52.200;21.052;2022-12-07T15:57:02;1.70;99.90
19172;DHT22;9718;52.200;21.052;2022-12-07T15:59:29;1.70;99.90
19172;DHT22;9718;52.200;21.052;2022-12-07T16:01:56;1.70;99.90
19172;DHT22;9718;52.200;21.052;2022-12-07T16:04:24;1.70;99.90
19172;DHT22;9718;52.200;21.052;2022-12-07T16:06:51;1.70;99.90
19172;DHT22;9718;52.200;21.052;2022-12-07T16:09:18;1.80;99.90
19172;DHT22;9718;52.200;21.052;2022-12-07T16:11:46;1.80;99.90
19172;DHT22;9718;52.200;21.052;2022-12-07T16:14:13;1.80;99.90
19172;DHT22;9718;52.200;21.052;2022-12-07T16:16:40;1.80;99.90
19172;DHT22;9718;52.200;21.052;2022-12-07T16:19:08;1.80;99.90
19172;DHT22;9718;52.200;21.052;2022-12-07T16:21:36;1.90;99.90
19172;DHT22;9718;52.200;21.052;2022-12-07T16:24:04;1.90;99.90
19172;DHT22;9718;52.200;21.052;2022-12-07T16:26:32;2.00;99.90
19172;DHT22;9718;52.200;21.052;2022-12-07T16:28:59;1.90;99.90
19172;DHT22;9718;52.200;21.052;2022-12-07T16:31:28;2.00;99.90
19172;DHT22;9718;52.200;21.052;2022-12-07T16:33:57;2.00;99.90
19172;DHT22;9718;52.200;21.052;2022-12-07T16:36:25;2.00;99.90
19172;DHT22;9718;52.200;21.052;2022-12-07T16:39:14;2.00;99.90
19172;DHT22;9718;52.200;21.052;2022-12-07T16:41:41;2.00;99.90
19172;DHT22;9718;52.200;21.052;2022-12-07T16:44:10;2.00;99.90
19172;DHT22;9718;52.200;21.052;2022-12-07T16:46:39;2.00;99.90
19172;DHT22;9718;52.200;21.052;2022-12-07T16:49:08;2.00;99.90
19172;DHT22;9718;52.200;21.052;2022-12-07T16:51:36;2.00;99.90
19172;DHT22;9718;52.200;21.052;2022-12-07T16:54:03;2.00;99.90
19172;DHT22;9718;52.200;21.052;2022-12-07T16:56:31;2.00;99.90
19172;DHT22;9718;52.200;21.052;2022-12-07T16:58:58;2.10;99.90
19172;DHT22;9718;52.200;21.052;2022-12-07T17:01:25;2.10;99.90
19172;DHT22;9718;52.200;21.052;2022-12-07T17:03:56;2.10;99.90
19172;DHT22;9718;52.200;21.052;2022-12-07T17:06:26;2.10;99.90
19172;DHT22;9718;52.200;21.052;2022-12-07T17:08:55;2.10;99.90
19172;DHT22;9718;52.200;21.052;2022-12-07T17:11:28;2.10;99.90
19172;DHT22;9718;52.200;21.052;2022-12-07T17:13:55;2.10;99.90
19172;DHT22;9718;52.200;21.052;2022-12-07T17:16:41;2.10;99.90
19172;DHT22;9718;52.200;21.052;2022-12-07T17:19:10;2.20;99.90
19172;DHT22;9718;52.200;21.052;2022-12-07T17:21:38;2.20;99.90
19172;DHT22;9718;52.200;21.052;2022-12-07T17:24:07;2.20;99.90
19172;DHT22;9718;52.200;21.052;2022-12-07T17:26:36;2.20;99.90
19172;DHT22;9718;52.200;21.052;2022-12-07T17:29:05;2.20;99.90
19172;DHT22;9718;52.200;21.052;2022-12-07T17:31:33;2.20;99.90
19172;DHT22;9718;52.200;21.052;2022-12-07T17:34:00;2.20;99.90
19172;DHT22;9718;52.200;21.052;2022-12-07T17:36:30;2.20;99.90
19172;DHT22;9718;52.200;21.052;2022-12-07T17:38:58;2.20;99.90
19172;DHT22;9718;52.200;21.052;2022-12-07T17:41:28;2.10;99.90
19172;DHT22;9718;52.200;21.052;2022-12-07T17:44:16;2.10;99.90
19172;DHT22;9718;52.200;21.052;2022-12-07T17:46:45;2.10;99.90
19172;DHT22;9718;52.200;21.052;2022-12-07T17:49:12;2.20;99.90
19172;DHT22;9718;52.200;21.052;2022-12-07T17:51:40;2.20;99.90
19172;DHT22;9718;52.200;21.052;2022-12-07T17:54:25;2.20;99.90
19172;DHT22;9718;52.200;21.052;2022-12-07T17:56:53;2.30;99.90
19172;DHT22;9718;52.200;21.052;2022-12-07T17:59:20;2.30;99.90
19172;DHT22;9718;52.200;21.052;2022-12-07T18:01:47;2.40;99.90
19172;DHT22;9718;52.200;21.052;2022-12-07T18:04:14;2.30;99.90
19172;DHT22;9718;52.200;21.052;2022-12-07T18:06:42;2.30;99.90
19172;DHT22;9718;52.200;21.052;2022-12-07T18:09:16;2.20;99.90
19172;DHT22;9718;52.200;21.052;2022-12-07T18:11:43;2.10;99.90